sensor_id;sensor_type;location;lat;lon;timestamp;temperature;humidity
11474;DHT22;5793;52.238;13.438;2023-07-29T00:00:02;17.20;99.90
11474;DHT22;5793;52.238;13.438;2023-07-29T00:02:30;17.10;99.90
11474;DHT22;5793;52.238;13.438;2023-07-29T00:05:00;17.10;99.90
11474;DHT22;5793;52.238;13.438;2023-07-29T00:07:28;17.20;99.90
11474;DHT22;5793;52.238;13.438;2023-07-29T00:09:56;17.10;99.90
11474;DHT22;5793;52.238;13.438;2023-07-29T00:12:24;16.90;99.90
11474;DHT22;5793;52.238;13.438;2023-07-29T00:14:52;16.80;99.90
11474;DHT22;5793;52.238;13.438;2023-07-29T00:17:20;16.70;99.90
11474;DHT22;5793;52.238;13.438;2023-07-29T00:19:48;16.80;99.90
11474;DHT22;5793;52.238;13.438;2023-07-29T00:22:17;17.00;99.90
11474;DHT22;5793;52.238;13.438;2023-07-29T00:24:45;16.90;99.90
11474;DHT22;5793;52.238;13.438;2023-07-29T00:27:18;16.90;99.90
11474;DHT22;5793;52.238;13.438;2023-07-29T00:29:46;16.70;99.90
11474;DHT22;5793;52.238;13.438;2023-07-29T00:32:13;16.60;99.90
11474;DHT22;5793;52.238;13.438;2023-07-29T00:34:41;16.80;99.90
11474;DHT22;5793;52.238;13.438;2023-07-29T00:37:09;16.80;99.90
11474;DHT22;5793;52.238;13.438;2023-07-29T00:39:38;16.70;99.90
11474;DHT22;5793;52.238;13.438;2023-07-29T00:42:06;16.60;99.90
11474;DHT22;5793;52.238;13.438;2023-07-29T00:44:34;16.40;99.90
11474;DHT22;5793;52.238;13.438;2023-07-29T00:47:03;16.40;99.90
11474;DHT22;5793;52.238;13.438;2023-07-29T00:49:32;16.40;99.90
11474;DHT22;5793;52.238;13.438;2023-07-29T00:52:00;16.40;99.90
11474;DHT22;5793;52.238;13.438;2023-07-29T00:54:28;16.40;99.90
11474;DHT22;5793;52.238;13.438;2023-07-29T00:56:57;16.60;99.90
11474;DHT22;5793;52.238;13.438;2023-07-29T00:59:25;16.60;99.90
11474;DHT22;5793;52.238;13.438;2023-07-29T01:01:54;16.70;99.90
11474;DHT22;5793;52.238;13.438;2023-07-29T01:04:22;16.70;99.90
11474;DHT22;5793;52.238;13.438;2023-07-29T01:07:01;16.70;99.90
11474;DHT22;5793;52.238;13.438;2023-07-29T01:09:33;16.50;99.90
11474;DHT22;5793;52.238;13.438;2023-07-29T01:12:12;16.60;99.90
11474;DHT22;5793;52.238;13.438;2023-07-29T01:14:45;16.60;99.90
11474;DHT22;5793;52.238;13.438;2023-07-29T01:17:32;16.50;99.90
11474;DHT22;5793;52.238;13.438;2023-07-29T01:20:01;16.40;99.90
11474;DHT22;5793;52.238;13.438;2023-07-29T01:22:33;16.30;99.90
11474;DHT22;5793;52.238;13.438;2023-07-29T01:25:03;16.40;99.90
11474;DHT22;5793;52.238;13.438;2023-07-29T01:27:31;16.30;99.90
11474;DHT22;5793;52.238;13.438;2023-07-29T01:30:01;16.10;99.90
11474;DHT22;5793;52.238;13.438;2023-07-29T01:32:55;16.00;99.90
11474;DHT22;5793;52.238;13.438;2023-07-29T01:35:31;16.00;99.90
11474;DHT22;5793;52.238;13.438;2023-07-29T01:38:05;16.00;99.90
11474;DHT22;5793;52.238;13.438;2023-07-29T01:40:35;16.00;99.90
11474;DHT22;5793;52.238;13.438;2023-07-29T01:43:03;15.80;99.90
11474;DHT22;5793;52.238;13.438;2023-07-29T01:45:31;15.80;99.90
11474;DHT22;5793;52.238;13.438;2023-07-29T01:48:03;15.80;99.90
11474;DHT22;5793;52.238;13.438;2023-07-29T01:50:31;15.60;99.90
11474;DHT22;5793;52.238;13.438;2023-07-29T01:52:59;15.70;99.90
11474;DHT22;5793;52.238;13.438;2023-07-29T01:55:27;15.80;99.90
11474;DHT22;5793;52.238;13.438;2023-07-29T01:57:56;15.80;99.90
11474;DHT22;5793;52.238;13.438;2023-07-29T02:00:25;15.90;99.90
11474;DHT22;5793;52.238;13.438;2023-07-29T02:02:52;15.80;99.90
11474;DHT22;5793;52.238;13.438;2023-07-29T02:05:20;15.70;99.90
11474;DHT22;5793;52.238;13.438;2023-07-29T02:07:48;15.60;99.90
11474;DHT22;5793;52.238;13.438;2023-07-29T02:10:16;15.60;99.90
11474;DHT22;5793;52.238;13.438;2023-07-29T02:12:44;15.60;99.90
11474;DHT22;5793;52.238;13.438;2023-07-29T02:15:13;15.40;99.90
11474;DHT22;5793;52.238;13.438;2023-07-29T02:17:41;15.30;99.90
11474;DHT22;5793;52.238;13.438;2023-07-29T02:20:10;15.30;99.90
11474;DHT22;5793;52.238;13.438;2023-07-29T02:22:38;15.20;99.90
11474;DHT22;5793;52.238;13.438;2023-07-29T02:25:06;15.30;99.90
11474;DHT22;5793;52.238;13.438;2023-07-29T02:27:34;15.40;99.90
11474;DHT22;5793;52.238;13.438;2023-07-29T02:30:02;15.40;99.90
11474;DHT22;5793;52.238;13.438;2023-07-29T02:32:32;15.50;99.90
11474;DHT22;5793;52.238;13.438;2023-07-29T02:35:00;15.50;99.90
11474;DHT22;5793;52.238;13.438;2023-07-29T02:37:27;15.50;99.90
11474;DHT22;5793;52.238;13.438;2023-07-29T02:39:55;15.40;99.90
11474;DHT22;5793;52.238;13.438;2023-07-29T02:42:23;15.30;99.90
11474;DHT22;5793;52.238;13.438;2023-07-29T02:44:51;15.20;99.90
11474;DHT22;5793;52.238;13.438;2023-07-29T02:47:19;15.30;99.90
11474;DHT22;5793;52.238;13.438;2023-07-29T02:49:48;15.20;99.90
11474;DHT22;5793;52.238;13.438;2023-07-29T02:52:17;15.20;99.90
11474;DHT22;5793;52.238;13.438;2023-07-29T02:54:45;15.30;99.90
11474;DHT22;5793;52.238;13.438;2023-07-29T02:57:13;15.30;99.90
11474;DHT22;5793;52.238;13.438;2023-07-29T02:59:41;15.30;99.90
11474;DHT22;5793;52.238;13.438;2023-07-29T03:02:09;15.40;99.90
11474;DHT22;5793;52.238;13.438;2023-07-29T03:04:36;15.30;99.90
11474;DHT22;5793;52.238;13.438;2023-07-29T03:07:05;15.20;99.90
11474;DHT22;5793;52.238;13.438;2023-07-29T03:09:33;15.30;99.90
11474;DHT22;5793;52.238;13.438;2023-07-29T03:12:01;15.50;99.90
11474;DHT22;5793;52.238;13.438;2023-07-29T03:14:29;15.60;99.90
11474;DHT22;5793;52.238;13.438;2023-07-29T03:16:57;15.70;99.90
11474;DHT22;5793;52.238;13.438;2023-07-29T03:19:26;15.60;99.90
11474;DHT22;5793;52.238;13.438;2023-07-29T03:21:53;15.60;99.90
11474;DHT22;5793;52.238;13.438;2023-07-29T03:24:22;15.60;99.90
11474;DHT22;5793;52.238;13.438;2023-07-29T03:26:50;15.70;99.90
11474;DHT22;5793;52.238;13.438;2023-07-29T03:29:18;15.70;99.90
11474;DHT22;5793;52.238;13.438;2023-07-29T03:31:46;15.60;99.90
11474;DHT22;5793;52.238;13.438;2023-07-29T03:34:13;15.70;99.90
11474;DHT22;5793;52.238;13.438;2023-07-29T03:36:41;15.70;99.90
11474;DHT22;5793;52.238;13.438;2023-07-29T03:39:09;15.70;99.90
11474;DHT22;5793;52.238;13.438;2023-07-29T03:41:38;15.70;99.90
11474;DHT22;5793;52.238;13.438;2023-07-29T03:44:06;15.80;99.90
11474;DHT22;5793;52.238;13.438;2023-07-29T03:46:34;15.90;99.90
11474;DHT22;5793;52.238;13.438;2023-07-29T03:49:02;16.00;99.90
11474;DHT22;5793;52.238;13.438;2023-07-29T03:51:30;16.10;99.90
11474;DHT22;5793;52.238;13.438;2023-07-29T03:53:58;16.00;99.90
11474;DHT22;5793;52.238;13.438;2023-07-29T03:56:26;16.00;99.90
11474;DHT22;5793;52.238;13.438;2023-07-29T03:59:02;15.90;99.90
11474;DHT22;5793;52.238;13.438;2023-07-29T04:01:30;16.00;99.90
11474;DHT22;5793;52.238;13.438;2023-07-29T04:03:58;16.00;99.90
11474;DHT22;5793;52.238;13.438;2023-07-29T04:06:26;16.00;99.90
11474;DHT22;5793;52.238;13.438;2023-07-29T04:08:54;16.10;99.90
11474;DHT22;5793;52.238;13.438;2023-07-29T04:11:23;16.10;99.90
11474;DHT22;5793;52.238;13.438;2023-07-29T04:13:50;16.20;99.90
11474;DHT22;5793;52.238;13.438;2023-07-29T04:16:19;16.20;99.90
11474;DHT22;5793;52.238;13.438;2023-07-29T04:18:47;16.20;99.90
11474;DHT22;5793;52.238;13.438;2023-07-29T04:21:15;16.20;99.90
11474;DHT22;5793;52.238;13.438;2023-07-29T04:23:43;16.30;99.90
11474;DHT22;5793;52.238;13.438;2023-07-29T04:26:11;16.40;99.90
11474;DHT22;5793;52.238;13.438;2023-07-29T04:28:38;16.50;99.90
11474;DHT22;5793;52.238;13.438;2023-07-29T04:31:06;16.50;99.90
11474;DHT22;5793;52.238;13.438;2023-07-29T04:33:35;16.60;99.90
11474;DHT22;5793;52.238;13.438;2023-07-29T04:36:04;16.70;99.90
11474;DHT22;5793;52.238;13.438;2023-07-29T04:38:33;16.80;99.90
11474;DHT22;5793;52.238;13.438;2023-07-29T04:41:01;16.90;99.90
11474;DHT22;5793;52.238;13.438;2023-07-29T04:43:31;17.00;99.90
11474;DHT22;5793;52.238;13.438;2023-07-29T04:45:59;17.10;99.90
11474;DHT22;5793;52.238;13.438;2023-07-29T04:48:27;17.20;99.90
11474;DHT22;5793;52.238;13.438;2023-07-29T04:50:56;17.20;99.90
11474;DHT22;5793;52.238;13.438;2023-07-29T04:53:23;17.20;99.90
11474;DHT22;5793;52.238;13.438;2023-07-29T04:55:51;17.20;99.90
11474;DHT22;5793;52.238;13.438;2023-07-29T04:58:19;17.20;99.90
11474;DHT22;5793;52.238;13.438;2023-07-29T05:00:47;17.30;99.90
11474;DHT22;5793;52.238;13.438;2023-07-29T05:03:15;17.30;99.90
11474;DHT22;5793;52.238;13.438;2023-07-29T05:05:43;17.20;99.90
11474;DHT22;5793;52.238;13.438;2023-07-29T05:08:12;17.30;99.90
11474;DHT22;5793;52.238;13.438;2023-07-29T05:10:39;17.40;99.90
11474;DHT22;5793;52.238;13.438;2023-07-29T05:13:07;17.50;99.90
11474;DHT22;5793;52.238;13.438;2023-07-29T05:15:35;17.70;99.90
11474;DHT22;5793;52.238;13.438;2023-07-29T05:18:03;17.90;99.90
11474;DHT22;5793;52.238;13.438;2023-07-29T05:20:31;18.20;99.90
11474;DHT22;5793;52.238;13.438;2023-07-29T05:22:58;18.30;99.90
11474;DHT22;5793;52.238;13.438;2023-07-29T05:25:28;18.50;99.90
11474;DHT22;5793;52.238;13.438;2023-07-29T05:27:56;18.70;99.90
11474;DHT22;5793;52.238;13.438;2023-07-29T05:30:24;18.80;99.90
11474;DHT22;5793;52.238;13.438;2023-07-29T05:32:53;18.80;99.90
11474;DHT22;5793;52.238;13.438;2023-07-29T05:35:21;18.90;99.90
11474;DHT22;5793;52.238;13.438;2023-07-29T05:37:49;18.90;99.90
11474;DHT22;5793;52.238;13.438;2023-07-29T05:40:17;19.10;99.90
11474;DHT22;5793;52.238;13.438;2023-07-29T05:42:46;19.20;99.90
11474;DHT22;5793;52.238;13.438;2023-07-29T05:45:14;19.20;99.90
11474;DHT22;5793;52.238;13.438;2023-07-29T05:47:42;19.30;99.90
11474;DHT22;5793;52.238;13.438;2023-07-29T05:50:10;19.50;99.90
11474;DHT22;5793;52.238;13.438;2023-07-29T05:52:38;19.50;99.90
11474;DHT22;5793;52.238;13.438;2023-07-29T05:55:06;19.60;99.90
11474;DHT22;5793;52.238;13.438;2023-07-29T05:57:34;19.60;99.90
11474;DHT22;5793;52.238;13.438;2023-07-29T06:00:04;19.50;99.90
11474;DHT22;5793;52.238;13.438;2023-07-29T06:02:33;19.50;99.90
11474;DHT22;5793;52.238;13.438;2023-07-29T06:05:00;19.50;99.90
11474;DHT22;5793;52.238;13.438;2023-07-29T06:07:29;19.40;99.90
11474;DHT22;5793;52.238;13.438;2023-07-29T06:09:58;19.30;99.90
11474;DHT22;5793;52.238;13.438;2023-07-29T06:12:26;19.20;99.90
11474;DHT22;5793;52.238;13.438;2023-07-29T06:14:54;19.20;99.90
11474;DHT22;5793;52.238;13.438;2023-07-29T06:17:23;19.30;99.90
11474;DHT22;5793;52.238;13.438;2023-07-29T06:19:51;19.30;99.90
11474;DHT22;5793;52.238;13.438;2023-07-29T06:22:18;19.30;99.90
11474;DHT22;5793;52.238;13.438;2023-07-29T06:24:46;19.40;99.90
11474;DHT22;5793;52.238;13.438;2023-07-29T06:27:14;19.40;99.90
11474;DHT22;5793;52.238;13.438;2023-07-29T06:29:42;19.50;99.90
11474;DHT22;5793;52.238;13.438;2023-07-29T06:32:10;19.50;99.90
11474;DHT22;5793;52.238;13.438;2023-07-29T06:34:39;19.60;99.90
11474;DHT22;5793;52.238;13.438;2023-07-29T06:37:07;19.70;99.90
11474;DHT22;5793;52.238;13.438;2023-07-29T06:39:34;19.90;99.90
11474;DHT22;5793;52.238;13.438;2023-07-29T06:42:03;20.00;99.90
11474;DHT22;5793;52.238;13.438;2023-07-29T06:44:30;20.00;99.90
11474;DHT22;5793;52.238;13.438;2023-07-29T06:46:58;20.10;99.90
11474;DHT22;5793;52.238;13.438;2023-07-29T06:49:26;20.30;99.90
11474;DHT22;5793;52.238;13.438;2023-07-29T06:51:55;20.40;99.90
11474;DHT22;5793;52.238;13.438;2023-07-29T06:54:24;20.60;99.90
11474;DHT22;5793;52.238;13.438;2023-07-29T06:56:52;20.70;99.90
11474;DHT22;5793;52.238;13.438;2023-07-29T06:59:20;20.90;99.90
11474;DHT22;5793;52.238;13.438;2023-07-29T07:01:48;21.10;99.90
11474;DHT22;5793;52.238;13.438;2023-07-29T07:04:16;21.30;99.90
11474;DHT22;5793;52.238;13.438;2023-07-29T07:06:44;21.30;99.90
11474;DHT22;5793;52.238;13.438;2023-07-29T07:09:13;21.30;99.90
11474;DHT22;5793;52.238;13.438;2023-07-29T07:11:40;21.40;99.90
11474;DHT22;5793;52.238;13.438;2023-07-29T07:14:08;21.30;99.90
11474;DHT22;5793;52.238;13.438;2023-07-29T07:16:36;21.40;99.90
11474;DHT22;5793;52.238;13.438;2023-07-29T07:19:06;21.60;99.90
11474;DHT22;5793;52.238;13.438;2023-07-29T07:21:34;21.80;99.90
11474;DHT22;5793;52.238;13.438;2023-07-29T07:24:02;21.90;99.90
11474;DHT22;5793;52.238;13.438;2023-07-29T07:26:31;22.10;99.90
11474;DHT22;5793;52.238;13.438;2023-07-29T07:28:59;22.30;99.90
11474;DHT22;5793;52.238;13.438;2023-07-29T07:31:27;22.40;99.90
11474;DHT22;5793;52.238;13.438;2023-07-29T07:33:54;22.50;99.90
11474;DHT22;5793;52.238;13.438;2023-07-29T07:36:22;22.60;99.90
11474;DHT22;5793;52.238;13.438;2023-07-29T07:38:50;22.60;99.90
11474;DHT22;5793;52.238;13.438;2023-07-29T07:41:18;22.70;99.90
11474;DHT22;5793;52.238;13.438;2023-07-29T07:43:47;22.70;99.90
11474;DHT22;5793;52.238;13.438;2023-07-29T07:46:15;23.00;99.90
11474;DHT22;5793;52.238;13.438;2023-07-29T07:48:42;23.00;99.90
11474;DHT22;5793;52.238;13.438;2023-07-29T07:51:11;23.00;99.90
11474;DHT22;5793;52.238;13.438;2023-07-29T07:53:39;22.90;99.90
11474;DHT22;5793;52.238;13.438;2023-07-29T07:56:07;22.70;99.90
11474;DHT22;5793;52.238;13.438;2023-07-29T07:58:35;22.60;99.90
11474;DHT22;5793;52.238;13.438;2023-07-29T08:01:05;22.70;99.90
11474;DHT22;5793;52.238;13.438;2023-07-29T08:03:34;23.00;99.90
11474;DHT22;5793;52.238;13.438;2023-07-29T08:06:02;23.10;99.90
11474;DHT22;5793;52.238;13.438;2023-07-29T08:08:30;23.00;99.90
11474;DHT22;5793;52.238;13.438;2023-07-29T08:10:58;22.90;99.90
11474;DHT22;5793;52.238;13.438;2023-07-29T08:13:26;22.70;99.90
11474;DHT22;5793;52.238;13.438;2023-07-29T08:15:53;22.70;99.90
11474;DHT22;5793;52.238;13.438;2023-07-29T08:18:23;22.80;99.90
11474;DHT22;5793;52.238;13.438;2023-07-29T08:20:54;23.00;99.90
11474;DHT22;5793;52.238;13.438;2023-07-29T08:23:24;23.50;99.90
11474;DHT22;5793;52.238;13.438;2023-07-29T08:25:53;24.30;99.90
11474;DHT22;5793;52.238;13.438;2023-07-29T08:28:22;24.90;99.90
11474;DHT22;5793;52.238;13.438;2023-07-29T08:30:50;25.20;99.90
11474;DHT22;5793;52.238;13.438;2023-07-29T08:33:18;25.40;99.90
11474;DHT22;5793;52.238;13.438;2023-07-29T08:35:47;25.50;99.90
11474;DHT22;5793;52.238;13.438;2023-07-29T08:38:15;25.60;99.90
11474;DHT22;5793;52.238;13.438;2023-07-29T08:40:48;25.70;99.90
11474;DHT22;5793;52.238;13.438;2023-07-29T08:43:19;25.80;99.90
11474;DHT22;5793;52.238;13.438;2023-07-29T08:45:47;25.60;99.90
11474;DHT22;5793;52.238;13.438;2023-07-29T08:48:21;25.40;99.90
11474;DHT22;5793;52.238;13.438;2023-07-29T08:50:52;25.40;99.90
11474;DHT22;5793;52.238;13.438;2023-07-29T08:53:21;25.40;99.90
11474;DHT22;5793;52.238;13.438;2023-07-29T08:55:49;25.30;99.90
11474;DHT22;5793;52.238;13.438;2023-07-29T08:58:17;25.10;99.90
11474;DHT22;5793;52.238;13.438;2023-07-29T09:00:46;25.20;99.90
11474;DHT22;5793;52.238;13.438;2023-07-29T09:03:15;25.60;99.90
11474;DHT22;5793;52.238;13.438;2023-07-29T09:05:43;26.00;99.90
11474;DHT22;5793;52.238;13.438;2023-07-29T09:08:13;26.60;99.90
11474;DHT22;5793;52.238;13.438;2023-07-29T09:10:41;27.40;99.90
11474;DHT22;5793;52.238;13.438;2023-07-29T09:13:09;28.80;99.90
11474;DHT22;5793;52.238;13.438;2023-07-29T09:15:37;30.50;99.90
11474;DHT22;5793;52.238;13.438;2023-07-29T09:18:15;30.70;99.90
11474;DHT22;5793;52.238;13.438;2023-07-29T09:20:43;29.90;99.90
11474;DHT22;5793;52.238;13.438;2023-07-29T09:23:12;28.70;99.90
11474;DHT22;5793;52.238;13.438;2023-07-29T09:25:41;27.80;99.90
11474;DHT22;5793;52.238;13.438;2023-07-29T09:28:10;27.00;99.90
11474;DHT22;5793;52.238;13.438;2023-07-29T09:30:38;26.70;99.90
11474;DHT22;5793;52.238;13.438;2023-07-29T09:33:06;26.20;99.90
11474;DHT22;5793;52.238;13.438;2023-07-29T09:35:36;25.80;99.90
11474;DHT22;5793;52.238;13.438;2023-07-29T09:38:05;25.80;99.90
11474;DHT22;5793;52.238;13.438;2023-07-29T09:40:38;25.90;99.90
11474;DHT22;5793;52.238;13.438;2023-07-29T09:43:07;26.90;99.90
11474;DHT22;5793;52.238;13.438;2023-07-29T09:45:36;27.90;99.90
11474;DHT22;5793;52.238;13.438;2023-07-29T09:48:05;29.10;99.90
11474;DHT22;5793;52.238;13.438;2023-07-29T09:50:36;28.90;99.90
11474;DHT22;5793;52.238;13.438;2023-07-29T09:53:07;28.90;99.90
11474;DHT22;5793;52.238;13.438;2023-07-29T09:55:35;28.00;99.90
11474;DHT22;5793;52.238;13.438;2023-07-29T09:58:04;28.20;99.90
11474;DHT22;5793;52.238;13.438;2023-07-29T10:00:35;28.30;99.90
11474;DHT22;5793;52.238;13.438;2023-07-29T10:03:06;27.90;99.90
11474;DHT22;5793;52.238;13.438;2023-07-29T10:05:35;27.60;99.90
11474;DHT22;5793;52.238;13.438;2023-07-29T10:08:04;27.10;99.90
11474;DHT22;5793;52.238;13.438;2023-07-29T10:10:32;26.70;99.90
11474;DHT22;5793;52.238;13.438;2023-07-29T10:13:00;26.50;99.90
11474;DHT22;5793;52.238;13.438;2023-07-29T10:15:31;26.20;99.90
11474;DHT22;5793;52.238;13.438;2023-07-29T10:17:59;26.20;99.90
11474;DHT22;5793;52.238;13.438;2023-07-29T10:20:30;26.30;99.90
11474;DHT22;5793;52.238;13.438;2023-07-29T10:23:00;27.10;99.90
11474;DHT22;5793;52.238;13.438;2023-07-29T10:25:38;27.20;99.90
11474;DHT22;5793;52.238;13.438;2023-07-29T10:28:08;26.90;99.90
11474;DHT22;5793;52.238;13.438;2023-07-29T10:30:38;26.60;99.90
11474;DHT22;5793;52.238;13.438;2023-07-29T10:33:06;26.40;99.90
11474;DHT22;5793;52.238;13.438;2023-07-29T10:35:34;26.10;99.90
11474;DHT22;5793;52.238;13.438;2023-07-29T10:38:03;26.00;99.90
11474;DHT22;5793;52.238;13.438;2023-07-29T10:40:45;26.10;99.90
11474;DHT22;5793;52.238;13.438;2023-07-29T10:43:19;26.30;99.90
11474;DHT22;5793;52.238;13.438;2023-07-29T10:45:53;26.90;99.90
11474;DHT22;5793;52.238;13.438;2023-07-29T10:48:41;27.60;99.90
11474;DHT22;5793;52.238;13.438;2023-07-29T10:51:29;27.90;99.90
11474;DHT22;5793;52.238;13.438;2023-07-29T10:53:58;28.50;99.90
11474;DHT22;5793;52.238;13.438;2023-07-29T10:56:27;28.90;99.90
11474;DHT22;5793;52.238;13.438;2023-07-29T10:58:57;29.30;99.90
11474;DHT22;5793;52.238;13.438;2023-07-29T11:01:30;28.70;99.90
11474;DHT22;5793;52.238;13.438;2023-07-29T11:04:24;27.90;99.90
11474;DHT22;5793;52.238;13.438;2023-07-29T11:07:24;27.20;99.90
11474;DHT22;5793;52.238;13.438;2023-07-29T11:09:57;26.50;99.90
11474;DHT22;5793;52.238;13.438;2023-07-29T11:12:39;25.70;99.90
11474;DHT22;5793;52.238;13.438;2023-07-29T11:15:18;24.90;99.90
11474;DHT22;5793;52.238;13.438;2023-07-29T11:17:48;23.60;99.90
11474;DHT22;5793;52.238;13.438;2023-07-29T11:20:18;22.90;99.90
11474;DHT22;5793;52.238;13.438;2023-07-29T11:22:46;22.70;99.90
11474;DHT22;5793;52.238;13.438;2023-07-29T11:25:15;22.70;99.90
11474;DHT22;5793;52.238;13.438;2023-07-29T11:27:44;22.70;99.90
11474;DHT22;5793;52.238;13.438;2023-07-29T11:30:14;22.60;99.90
11474;DHT22;5793;52.238;13.438;2023-07-29T11:32:43;22.30;99.90
11474;DHT22;5793;52.238;13.438;2023-07-29T11:35:14;22.10;99.90
11474;DHT22;5793;52.238;13.438;2023-07-29T11:37:44;22.00;99.90
11474;DHT22;5793;52.238;13.438;2023-07-29T11:40:16;21.80;99.90
11474;DHT22;5793;52.238;13.438;2023-07-29T11:42:44;21.60;99.90
11474;DHT22;5793;52.238;13.438;2023-07-29T11:45:13;21.40;99.90
11474;DHT22;5793;52.238;13.438;2023-07-29T11:47:44;21.30;99.90
11474;DHT22;5793;52.238;13.438;2023-07-29T11:50:14;21.30;99.90
11474;DHT22;5793;52.238;13.438;2023-07-29T11:52:43;21.50;99.90
11474;DHT22;5793;52.238;13.438;2023-07-29T11:55:12;21.60;99.90
11474;DHT22;5793;52.238;13.438;2023-07-29T11:57:41;21.60;99.90
11474;DHT22;5793;52.238;13.438;2023-07-29T12:00:11;21.70;99.90
11474;DHT22;5793;52.238;13.438;2023-07-29T12:02:42;21.60;99.90
11474;DHT22;5793;52.238;13.438;2023-07-29T12:05:13;21.70;99.90
11474;DHT22;5793;52.238;13.438;2023-07-29T12:07:43;21.70;99.90
11474;DHT22;5793;52.238;13.438;2023-07-29T12:10:12;21.60;99.90
11474;DHT22;5793;52.238;13.438;2023-07-29T12:12:44;21.50;99.90
11474;DHT22;5793;52.238;13.438;2023-07-29T12:15:13;21.20;99.90
11474;DHT22;5793;52.238;13.438;2023-07-29T12:17:41;21.00;99.90
11474;DHT22;5793;52.238;13.438;2023-07-29T12:20:10;20.70;99.90
11474;DHT22;5793;52.238;13.438;2023-07-29T12:22:39;20.20;99.90
11474;DHT22;5793;52.238;13.438;2023-07-29T12:25:08;19.90;99.90
11474;DHT22;5793;52.238;13.438;2023-07-29T12:27:36;19.60;99.90
11474;DHT22;5793;52.238;13.438;2023-07-29T12:30:04;19.30;99.90
11474;DHT22;5793;52.238;13.438;2023-07-29T12:32:32;19.10;99.90
11474;DHT22;5793;52.238;13.438;2023-07-29T12:35:00;19.10;99.90
11474;DHT22;5793;52.238;13.438;2023-07-29T12:37:31;19.00;99.90
11474;DHT22;5793;52.238;13.438;2023-07-29T12:40:01;19.00;99.90
11474;DHT22;5793;52.238;13.438;2023-07-29T12:42:30;19.00;99.90
11474;DHT22;5793;52.238;13.438;2023-07-29T12:44:58;19.10;99.90
11474;DHT22;5793;52.238;13.438;2023-07-29T12:47:26;19.20;99.90
11474;DHT22;5793;52.238;13.438;2023-07-29T12:49:54;19.30;99.90
11474;DHT22;5793;52.238;13.438;2023-07-29T12:52:21;19.40;99.90
11474;DHT22;5793;52.238;13.438;2023-07-29T12:54:49;19.50;99.90
11474;DHT22;5793;52.238;13.438;2023-07-29T12:57:18;19.70;99.90
11474;DHT22;5793;52.238;13.438;2023-07-29T12:59:46;20.00;99.90
11474;DHT22;5793;52.238;13.438;2023-07-29T13:02:14;20.20;99.90
11474;DHT22;5793;52.238;13.438;2023-07-29T13:04:41;20.40;99.90
11474;DHT22;5793;52.238;13.438;2023-07-29T13:07:09;20.80;99.90
11474;DHT22;5793;52.238;13.438;2023-07-29T13:09:37;21.10;99.90
11474;DHT22;5793;52.238;13.438;2023-07-29T13:12:05;21.10;99.90
11474;DHT22;5793;52.238;13.438;2023-07-29T13:14:35;21.20;99.90
11474;DHT22;5793;52.238;13.438;2023-07-29T13:17:03;21.30;99.90
11474;DHT22;5793;52.238;13.438;2023-07-29T13:19:30;21.50;99.90
11474;DHT22;5793;52.238;13.438;2023-07-29T13:21:58;21.40;99.90
11474;DHT22;5793;52.238;13.438;2023-07-29T13:24:26;21.40;99.90
11474;DHT22;5793;52.238;13.438;2023-07-29T13:26:54;21.40;99.90
11474;DHT22;5793;52.238;13.438;2023-07-29T13:29:21;21.30;99.90
11474;DHT22;5793;52.238;13.438;2023-07-29T13:31:51;21.20;99.90
11474;DHT22;5793;52.238;13.438;2023-07-29T13:34:18;21.20;99.90
11474;DHT22;5793;52.238;13.438;2023-07-29T13:36:46;21.20;99.90
11474;DHT22;5793;52.238;13.438;2023-07-29T13:39:15;21.20;99.90
11474;DHT22;5793;52.238;13.438;2023-07-29T13:41:42;21.30;99.90
11474;DHT22;5793;52.238;13.438;2023-07-29T13:44:10;21.50;99.90
11474;DHT22;5793;52.238;13.438;2023-07-29T13:46:38;21.90;99.90
11474;DHT22;5793;52.238;13.438;2023-07-29T13:49:07;22.40;99.90
11474;DHT22;5793;52.238;13.438;2023-07-29T13:51:35;22.70;99.90
11474;DHT22;5793;52.238;13.438;2023-07-29T13:54:03;22.90;99.90
11474;DHT22;5793;52.238;13.438;2023-07-29T13:56:31;23.00;99.90
11474;DHT22;5793;52.238;13.438;2023-07-29T13:58:59;22.90;99.90
11474;DHT22;5793;52.238;13.438;2023-07-29T14:01:26;22.80;99.90
11474;DHT22;5793;52.238;13.438;2023-07-29T14:03:54;22.60;99.90
11474;DHT22;5793;52.238;13.438;2023-07-29T14:06:23;22.60;99.90
11474;DHT22;5793;52.238;13.438;2023-07-29T14:09:09;22.50;99.90
11474;DHT22;5793;52.238;13.438;2023-07-29T14:11:36;22.40;99.90
11474;DHT22;5793;52.238;13.438;2023-07-29T14:14:05;22.40;99.90
11474;DHT22;5793;52.238;13.438;2023-07-29T14:16:32;22.40;99.90
11474;DHT22;5793;52.238;13.438;2023-07-29T14:19:01;22.50;99.90
11474;DHT22;5793;52.238;13.438;2023-07-29T14:21:30;22.70;99.90
11474;DHT22;5793;52.238;13.438;2023-07-29T14:23:58;22.80;99.90
11474;DHT22;5793;52.238;13.438;2023-07-29T14:26:26;22.80;99.90
11474;DHT22;5793;52.238;13.438;2023-07-29T14:28:54;22.90;99.90
11474;DHT22;5793;52.238;13.438;2023-07-29T14:31:21;22.80;99.90
11474;DHT22;5793;52.238;13.438;2023-07-29T14:33:49;22.70;99.90
11474;DHT22;5793;52.238;13.438;2023-07-29T14:36:17;22.60;99.90
11474;DHT22;5793;52.238;13.438;2023-07-29T14:38:46;22.60;99.90
11474;DHT22;5793;52.238;13.438;2023-07-29T14:41:14;22.70;99.90
11474;DHT22;5793;52.238;13.438;2023-07-29T14:43:42;23.00;99.90
11474;DHT22;5793;52.238;13.438;2023-07-29T14:46:10;23.00;99.90
11474;DHT22;5793;52.238;13.438;2023-07-29T14:48:37;23.20;99.90
11474;DHT22;5793;52.238;13.438;2023-07-29T14:51:05;23.20;99.90
11474;DHT22;5793;52.238;13.438;2023-07-29T14:53:33;23.10;99.90
11474;DHT22;5793;52.238;13.438;2023-07-29T14:56:02;22.80;99.90
11474;DHT22;5793;52.238;13.438;2023-07-29T14:58:30;22.50;99.90
11474;DHT22;5793;52.238;13.438;2023-07-29T15:00:58;22.40;99.90
11474;DHT22;5793;52.238;13.438;2023-07-29T15:03:26;22.20;99.90
11474;DHT22;5793;52.238;13.438;2023-07-29T15:05:54;22.10;99.90
11474;DHT22;5793;52.238;13.438;2023-07-29T15:08:22;22.00;99.90
11474;DHT22;5793;52.238;13.438;2023-07-29T15:10:50;21.90;99.90
11474;DHT22;5793;52.238;13.438;2023-07-29T15:13:19;21.80;99.90
11474;DHT22;5793;52.238;13.438;2023-07-29T15:15:46;21.70;99.90
11474;DHT22;5793;52.238;13.438;2023-07-29T15:18:16;21.70;99.90
11474;DHT22;5793;52.238;13.438;2023-07-29T15:20:44;21.60;99.90
11474;DHT22;5793;52.238;13.438;2023-07-29T15:23:12;21.70;99.90
11474;DHT22;5793;52.238;13.438;2023-07-29T15:25:39;21.60;99.90
11474;DHT22;5793;52.238;13.438;2023-07-29T15:28:07;21.60;99.90
11474;DHT22;5793;52.238;13.438;2023-07-29T15:30:37;21.60;99.90
11474;DHT22;5793;52.238;13.438;2023-07-29T15:33:07;21.60;99.90
11474;DHT22;5793;52.238;13.438;2023-07-29T15:35:37;21.60;99.90
11474;DHT22;5793;52.238;13.438;2023-07-29T15:38:05;21.50;99.90
11474;DHT22;5793;52.238;13.438;2023-07-29T15:40:33;21.50;99.90